Time;durP1;ratioP1;P1;durP2;ratioP2;P2;SDS_P1;SDS_P2;PMS_P1;PMS_P2;Temp;Humidity;BMP_temperature;BMP_pressure;BME280_temperature;BME280_humidity;BME280_pressure;Samples;Min_cycle;Max_cycle;Signal;HPM_P1;HPM_P2
2020/11/11 00:00:29;;;;;;;30.75;10.85;;;;;;;5.85;76.64648;96203.9;;;;
2020/11/11 00:01:30;;;;;;;30.75;10.85;;;;;;;5.85;76.64648;96203.9;;;;
2020/11/11 00:02:30;;;;;;;30.75;10.85;;;;;;;5.85;76.64648;96203.9;;;;
2020/11/11 00:03:31;;;;;;;20.8;10;;;;;;;5.77;77.02441;96187.37;;;;
2020/11/11 00:04:31;;;;;;;20.8;10;;;;;;;5.77;77.02441;96187.37;;;;
2020/11/11 00:05:32;;;;;;;20.8;10;;;;;;;5.77;77.02441;96187.37;;;;
2020/11/11 00:06:32;;;;;;;20.8;10;;;;;;;5.77;77.02441;96187.37;;;;
2020/11/11 00:07:33;;;;;;;20.8;10;;;;;;;5.77;77.02441;96187.37;;;;
2020/11/11 00:08:33;;;;;;;20.8;10;;;;;;;5.77;77.02441;96187.37;;;;
2020/11/11 00:09:34;;;;;;;20.8;10;;;;;;;5.77;77.02441;96187.37;;;;
2020/11/11 00:10:34;;;;;;;20.8;10;;;;;;;5.77;77.02441;96187.37;;;;
2020/11/11 00:11:35;;;;;;;20.8;10;;;;;;;5.77;77.02441;96187.37;;;;
2020/11/11 00:12:36;;;;;;;20.8;10;;;;;;;5.77;77.02441;96187.37;;;;
2020/11/11 00:13:36;;;;;;;10.6;8.1;;;;;;;5.7;77.10645;96189.65;;;;
2020/11/11 00:14:37;;;;;;;10.6;8.1;;;;;;;5.7;77.10645;96189.65;;;;
2020/11/11 00:15:38;;;;;;;10.6;8.1;;;;;;;5.7;77.10645;96189.65;;;;
2020/11/11 00:16:40;;;;;;;10.6;8.1;;;;;;;5.7;77.10645;96189.65;;;;
2020/11/11 00:17:41;;;;;;;10.6;8.1;;;;;;;5.7;77.10645;96189.65;;;;
2020/11/11 00:18:41;;;;;;;10.6;8.1;;;;;;;5.7;77.10645;96189.65;;;;
2020/11/11 00:19:42;;;;;;;10.6;8.1;;;;;;;5.7;77.10645;96189.65;;;;
2020/11/11 00:20:43;;;;;;;10.6;8.1;;;;;;;5.7;77.10645;96189.65;;;;
2020/11/11 00:21:44;;;;;;;10.6;8.1;;;;;;;5.7;77.10645;96189.65;;;;
2020/11/11 00:22:45;;;;;;;10.6;8.1;;;;;;;5.7;77.10645;96189.65;;;;
2020/11/11 00:23:45;;;;;;;10.6;8.1;;;;;;;5.7;77.10645;96189.65;;;;
2020/11/11 00:24:46;;;;;;;10.55;8;;;;;;;5.65;77.03418;96193.78;;;;
2020/11/11 00:25:46;;;;;;;10.55;8;;;;;;;5.65;77.03418;96193.78;;;;
2020/11/11 00:26:47;;;;;;;10.55;8;;;;;;;5.65;77.03418;96193.78;;;;
2020/11/11 00:27:47;;;;;;;10.55;8;;;;;;;5.65;77.03418;96193.78;;;;
2020/11/11 00:28:48;;;;;;;10.55;8;;;;;;;5.65;77.03418;96193.78;;;;
2020/11/11 00:29:48;;;;;;;10.55;8;;;;;;;5.65;77.03418;96193.78;;;;
2020/11/11 00:30:49;;;;;;;10.55;8;;;;;;;5.65;77.03418;96193.78;;;;
2020/11/11 00:31:49;;;;;;;10.55;8;;;;;;;5.65;77.03418;96193.78;;;;
2020/11/11 00:32:50;;;;;;;10.55;8;;;;;;;5.65;77.03418;96193.78;;;;
2020/11/11 00:33:50;;;;;;;10.55;8;;;;;;;5.65;77.03418;96193.78;;;;
2020/11/11 00:34:51;;;;;;;14.5;7.650001;;;;;;;5.58;77.33789;96193.35;;;;
2020/11/11 00:35:51;;;;;;;14.5;7.650001;;;;;;;5.58;77.33789;96193.35;;;;
2020/11/11 00:36:52;;;;;;;14.5;7.650001;;;;;;;5.58;77.33789;96193.35;;;;
2020/11/11 00:37:52;;;;;;;14.5;7.650001;;;;;;;5.58;77.33789;96193.35;;;;
2020/11/11 00:38:53;;;;;;;14.5;7.650001;;;;;;;5.58;77.33789;96193.35;;;;
2020/11/11 00:39:53;;;;;;;14.5;7.650001;;;;;;;5.58;77.33789;96193.35;;;;
2020/11/11 00:40:54;;;;;;;14.5;7.650001;;;;;;;5.58;77.33789;96193.35;;;;
2020/11/11 00:41:54;;;;;;;14.5;7.650001;;;;;;;5.58;77.33789;96193.35;;;;
2020/11/11 00:42:55;;;;;;;14.5;7.650001;;;;;;;5.58;77.33789;96193.35;;;;
2020/11/11 00:43:55;;;;;;;14.5;7.650001;;;;;;;5.58;77.33789;96193.35;;;;
2020/11/11 00:44:56;;;;;;;14.5;7.650001;;;;;;;5.58;77.33789;96193.35;;;;
2020/11/11 00:45:56;;;;;;;11.65;7.500001;;;;;;;5.4;77.47656;96202.15;;;;
2020/11/11 00:46:57;;;;;;;11.65;7.500001;;;;;;;5.4;77.47656;96202.15;;;;
2020/11/11 00:47:57;;;;;;;11.65;7.500001;;;;;;;5.4;77.47656;96202.15;;;;
2020/11/11 00:48:58;;;;;;;11.65;7.500001;;;;;;;5.4;77.47656;96202.15;;;;
2020/11/11 00:49:58;;;;;;;11.65;7.500001;;;;;;;5.4;77.47656;96202.15;;;;
2020/11/11 00:50:59;;;;;;;11.65;7.500001;;;;;;;5.4;77.47656;96202.15;;;;
2020/11/11 00:51:59;;;;;;;11.65;7.500001;;;;;;;5.4;77.47656;96202.15;;;;
2020/11/11 00:53:00;;;;;;;11.65;7.500001;;;;;;;5.4;77.47656;96202.15;;;;
2020/11/11 00:54:01;;;;;;;11.65;7.500001;;;;;;;5.4;77.47656;96202.15;;;;
2020/11/11 00:55:01;;;;;;;11.65;7.500001;;;;;;;5.4;77.47656;96202.15;;;;
2020/11/11 00:56:02;;;;;;;11.65;7.500001;;;;;;;5.4;77.47656;96202.15;;;;
2020/11/11 00:57:03;;;;;;;10.8;7.2;;;;;;;5.29;77.87891;96203.92;;;;
2020/11/11 00:58:03;;;;;;;10.8;7.2;;;;;;;5.29;77.87891;96203.92;;;;
2020/11/11 00:59:04;;;;;;;10.8;7.2;;;;;;;5.29;77.87891;96203.92;;;;
2020/11/11 01:00:04;;;;;;;10.8;7.2;;;;;;;5.29;77.87891;96203.92;;;;
2020/11/11 01:01:05;;;;;;;10.8;7.2;;;;;;;5.29;77.87891;96203.92;;;;
2020/11/11 01:02:06;;;;;;;10.8;7.2;;;;;;;5.29;77.87891;96203.92;;;;
2020/11/11 01:03:07;;;;;;;10.8;7.2;;;;;;;5.29;77.87891;96203.92;;;;
2020/11/11 01:04:08;;;;;;;10.8;7.2;;;;;;;5.29;77.87891;96203.92;;;;
2020/11/11 01:05:08;;;;;;;10.8;7.2;;;;;;;5.29;77.87891;96203.92;;;;
2020/11/11 01:06:09;;;;;;;10.8;7.2;;;;;;;5.29;77.87891;96203.92;;;;
2020/11/11 01:07:09;;;;;;;9.399999;7.45;;;;;;;5.22;78.09961;96198.05;;;;
2020/11/11 01:08:10;;;;;;;9.399999;7.45;;;;;;;5.22;78.09961;96198.05;;;;
2020/11/11 01:09:10;;;;;;;9.399999;7.45;;;;;;;5.22;78.09961;96198.05;;;;
2020/11/11 01:10:11;;;;;;;9.399999;7.45;;;;;;;5.22;78.09961;96198.05;;;;
2020/11/11 01:11:12;;;;;;;9.399999;7.45;;;;;;;5.22;78.09961;96198.05;;;;
2020/11/11 01:12:12;;;;;;;9.399999;7.45;;;;;;;5.22;78.09961;96198.05;;;;
2020/11/11 01:13:13;;;;;;;9.399999;7.45;;;;;;;5.22;78.09961;96198.05;;;;
2020/11/11 01:14:13;;;;;;;9.399999;7.45;;;;;;;5.22;78.09961;96198.05;;;;
2020/11/11 01:15:14;;;;;;;9.399999;7.45;;;;;;;5.22;78.09961;96198.05;;;;
2020/11/11 01:16:15;;;;;;;9.399999;7.45;;;;;;;5.22;78.09961;96198.05;;;;
2020/11/11 01:17:15;;;;;;;9.399999;7.45;;;;;;;5.22;78.09961;96198.05;;;;
2020/11/11 01:18:16;;;;;;;13.55;7.849999;;;;;;;5.25;78.19922;96197.27;;;;
2020/11/11 01:19:16;;;;;;;13.55;7.849999;;;;;;;5.25;78.19922;96197.27;;;;
2020/11/11 01:20:17;;;;;;;13.55;7.849999;;;;;;;5.25;78.19922;96197.27;;;;
2020/11/11 01:21:18;;;;;;;13.55;7.849999;;;;;;;5.25;78.19922;96197.27;;;;
2020/11/11 01:22:19;;;;;;;13.55;7.849999;;;;;;;5.25;78.19922;96197.27;;;;
2020/11/11 01:23:19;;;;;;;13.55;7.849999;;;;;;;5.25;78.19922;96197.27;;;;
2020/11/11 01:24:20;;;;;;;13.55;7.849999;;;;;;;5.25;78.19922;96197.27;;;;
2020/11/11 01:25:20;;;;;;;13.55;7.849999;;;;;;;5.25;78.19922;96197.27;;;;
2020/11/11 01:26:21;;;;;;;13.55;7.849999;;;;;;;5.25;78.19922;96197.27;;;;
2020/11/11 01:27:21;;;;;;;13.55;7.849999;;;;;;;5.25;78.19922;96197.27;;;;
2020/11/11 01:28:22;;;;;;;9.700001;7.6;;;;;;;5.23;78.1416;96196.22;;;;
2020/11/11 01:29:22;;;;;;;9.700001;7.6;;;;;;;5.23;78.1416;96196.22;;;;
2020/11/11 01:30:23;;;;;;;9.700001;7.6;;;;;;;5.23;78.1416;96196.22;;;;
2020/11/11 01:31:23;;;;;;;9.700001;7.6;;;;;;;5.23;78.1416;96196.22;;;;
2020/11/11 01:32:24;;;;;;;9.700001;7.6;;;;;;;5.23;78.1416;96196.22;;;;
2020/11/11 01:33:24;;;;;;;9.700001;7.6;;;;;;;5.23;78.1416;96196.22;;;;
2020/11/11 01:34:25;;;;;;;9.700001;7.6;;;;;;;5.23;78.1416;96196.22;;;;
2020/11/11 01:35:25;;;;;;;9.700001;7.6;;;;;;;5.23;78.1416;96196.22;;;;
2020/11/11 01:36:26;;;;;;;9.700001;7.6;;;;;;;5.23;78.1416;96196.22;;;;
2020/11/11 01:37:26;;;;;;;9.700001;7.6;;;;;;;5.23;78.1416;96196.22;;;;
2020/11/11 01:38:27;;;;;;;9.700001;7.6;;;;;;;5.23;78.1416;96196.22;;;;
2020/11/11 01:39:27;;;;;;;8.25;7.000001;;;;;;;5.26;78.23047;96191.83;;;;
2020/11/11 01:40:28;;;;;;;8.25;7.000001;;;;;;;5.26;78.23047;96191.83;;;;
2020/11/11 01:41:28;;;;;;;8.25;7.000001;;;;;;;5.26;78.23047;96191.83;;;;
2020/11/11 01:42:29;;;;;;;8.25;7.000001;;;;;;;5.26;78.23047;96191.83;;;;
2020/11/11 01:43:29;;;;;;;8.25;7.000001;;;;;;;5.26;78.23047;96191.83;;;;
2020/11/11 01:44:30;;;;;;;8.25;7.000001;;;;;;;5.26;78.23047;96191.83;;;;
2020/11/11 01:45:33;;;;;;;8.25;7.000001;;;;;;;5.26;78.23047;96191.83;;;;
2020/11/11 01:46:36;;;;;;;8.25;7.000001;;;;;;;5.26;78.23047;96191.83;;;;
2020/11/11 01:47:37;;;;;;;8.25;7.000001;;;;;;;5.26;78.23047;96191.83;;;;
2020/11/11 01:48:38;;;;;;;8.25;7.000001;;;;;;;5.26;78.23047;96191.83;;;;
2020/11/11 01:49:39;;;;;;;7.5;6.700001;;;;;;;5.26;78.37891;96186.05;;;;
2020/11/11 01:50:40;;;;;;;7.5;6.700001;;;;;;;5.26;78.37891;96186.05;;;;
2020/11/11 01:51:43;;;;;;;7.5;6.700001;;;;;;;5.26;78.37891;96186.05;;;;
2020/11/11 01:52:48;;;;;;;7.5;6.700001;;;;;;;5.26;78.37891;96186.05;;;;
2020/11/11 01:53:49;;;;;;;7.5;6.700001;;;;;;;5.26;78.37891;96186.05;;;;
2020/11/11 01:54:50;;;;;;;7.5;6.700001;;;;;;;5.26;78.37891;96186.05;;;;
2020/11/11 01:55:50;;;;;;;7.5;6.700001;;;;;;;5.26;78.37891;96186.05;;;;
2020/11/11 01:56:51;;;;;;;7.5;6.700001;;;;;;;5.26;78.37891;96186.05;;;;
2020/11/11 01:57:52;;;;;;;7.5;6.700001;;;;;;;5.26;78.37891;96186.05;;;;
2020/11/11 01:58:52;;;;;;;7.5;6.700001;;;;;;;5.26;78.37891;96186.05;;;;
2020/11/11 01:59:53;;;;;;;7.5;6.700001;;;;;;;5.26;78.37891;96186.05;;;;
2020/11/11 02:00:53;;;;;;;8.1;6.799999;;;;;;;5.31;78.31543;96181.83;;;;
2020/11/11 02:01:55;;;;;;;8.1;6.799999;;;;;;;5.31;78.31543;96181.83;;;;
2020/11/11 02:02:56;;;;;;;8.1;6.799999;;;;;;;5.31;78.31543;96181.83;;;;
2020/11/11 02:03:56;;;;;;;8.1;6.799999;;;;;;;5.31;78.31543;96181.83;;;;
2020/11/11 02:04:57;;;;;;;8.1;6.799999;;;;;;;5.31;78.31543;96181.83;;;;
2020/11/11 02:05:57;;;;;;;8.1;6.799999;;;;;;;5.31;78.31543;96181.83;;;;
2020/11/11 02:06:58;;;;;;;8.1;6.799999;;;;;;;5.31;78.31543;96181.83;;;;
2020/11/11 02:07:59;;;;;;;8.1;6.799999;;;;;;;5.31;78.31543;96181.83;;;;
2020/11/11 02:08:59;;;;;;;8.1;6.799999;;;;;;;5.31;78.31543;96181.83;;;;
2020/11/11 02:10:00;;;;;;;8.1;6.799999;;;;;;;5.31;78.31543;96181.83;;;;
2020/11/11 02:11:00;;;;;;;8.450001;6.95;;;;;;;5.34;78.52051;96184.66;;;;
2020/11/11 02:12:01;;;;;;;8.450001;6.95;;;;;;;5.34;78.52051;96184.66;;;;
2020/11/11 02:13:01;;;;;;;8.450001;6.95;;;;;;;5.34;78.52051;96184.66;;;;
2020/11/11 02:14:02;;;;;;;8.450001;6.95;;;;;;;5.34;78.52051;96184.66;;;;
2020/11/11 02:15:02;;;;;;;8.450001;6.95;;;;;;;5.34;78.52051;96184.66;;;;
2020/11/11 02:16:04;;;;;;;8.450001;6.95;;;;;;;5.34;78.52051;96184.66;;;;
2020/11/11 02:17:05;;;;;;;8.450001;6.95;;;;;;;5.34;78.52051;96184.66;;;;
2020/11/11 02:18:05;;;;;;;8.450001;6.95;;;;;;;5.34;78.52051;96184.66;;;;
2020/11/11 02:19:06;;;;;;;8.450001;6.95;;;;;;;5.34;78.52051;96184.66;;;;
2020/11/11 02:20:07;;;;;;;8.450001;6.95;;;;;;;5.34;78.52051;96184.66;;;;
2020/11/11 02:21:07;;;;;;;8.450001;6.95;;;;;;;5.34;78.52051;96184.66;;;;
2020/11/11 02:22:08;;;;;;;7.55;6.45;;;;;;;5.44;78.6543;96177.19;;;;
2020/11/11 02:23:09;;;;;;;7.55;6.45;;;;;;;5.44;78.6543;96177.19;;;;
2020/11/11 02:24:10;;;;;;;7.55;6.45;;;;;;;5.44;78.6543;96177.19;;;;
2020/11/11 02:25:10;;;;;;;7.55;6.45;;;;;;;5.44;78.6543;96177.19;;;;
2020/11/11 02:26:12;;;;;;;7.55;6.45;;;;;;;5.44;78.6543;96177.19;;;;
2020/11/11 02:27:13;;;;;;;7.55;6.45;;;;;;;5.44;78.6543;96177.19;;;;
2020/11/11 02:28:14;;;;;;;7.55;6.45;;;;;;;5.44;78.6543;96177.19;;;;
2020/11/11 02:29:14;;;;;;;7.55;6.45;;;;;;;5.44;78.6543;96177.19;;;;
2020/11/11 02:30:16;;;;;;;7.55;6.45;;;;;;;5.44;78.6543;96177.19;;;;
2020/11/11 02:31:16;;;;;;;7.55;6.45;;;;;;;5.44;78.6543;96177.19;;;;
2020/11/11 02:32:17;;;;;;;7.799999;6.500001;;;;;;;5.47;78.49023;96160.35;;;;
2020/11/11 02:33:17;;;;;;;7.799999;6.500001;;;;;;;5.47;78.49023;96160.35;;;;
2020/11/11 02:34:18;;;;;;;7.799999;6.500001;;;;;;;5.47;78.49023;96160.35;;;;
2020/11/11 02:35:18;;;;;;;7.799999;6.500001;;;;;;;5.47;78.49023;96160.35;;;;
2020/11/11 02:36:19;;;;;;;7.799999;6.500001;;;;;;;5.47;78.49023;96160.35;;;;
2020/11/11 02:37:20;;;;;;;7.799999;6.500001;;;;;;;5.47;78.49023;96160.35;;;;
2020/11/11 02:38:20;;;;;;;7.799999;6.500001;;;;;;;5.47;78.49023;96160.35;;;;
2020/11/11 02:39:21;;;;;;;7.799999;6.500001;;;;;;;5.47;78.49023;96160.35;;;;
2020/11/11 02:40:21;;;;;;;7.799999;6.500001;;;;;;;5.47;78.49023;96160.35;;;;
2020/11/11 02:41:22;;;;;;;7.799999;6.500001;;;;;;;5.47;78.49023;96160.35;;;;
2020/11/11 02:42:22;;;;;;;7.799999;6.500001;;;;;;;5.47;78.49023;96160.35;;;;
2020/11/11 02:43:23;;;;;;;8.650001;7.15;;;;;;;5.55;78.56055;96158.83;;;;
2020/11/11 02:44:23;;;;;;;8.650001;7.15;;;;;;;5.55;78.56055;96158.83;;;;
2020/11/11 02:45:24;;;;;;;8.650001;7.15;;;;;;;5.55;78.56055;96158.83;;;;
2020/11/11 02:46:24;;;;;;;8.650001;7.15;;;;;;;5.55;78.56055;96158.83;;;;
2020/11/11 02:47:25;;;;;;;8.650001;7.15;;;;;;;5.55;78.56055;96158.83;;;;
2020/11/11 02:48:26;;;;;;;8.650001;7.15;;;;;;;5.55;78.56055;96158.83;;;;
2020/11/11 02:49:39;;;;;;;8.650001;7.15;;;;;;;5.55;78.56055;96158.83;;;;
2020/11/11 02:50:39;;;;;;;8.650001;7.15;;;;;;;5.55;78.56055;96158.83;;;;
2020/11/11 02:51:40;;;;;;;8.650001;7.15;;;;;;;5.55;78.56055;96158.83;;;;
2020/11/11 02:52:41;;;;;;;8.650001;7.15;;;;;;;5.55;78.56055;96158.83;;;;
2020/11/11 02:53:41;;;;;;;8.649999;6.7;;;;;;;5.53;78.67285;96151.48;;;;
2020/11/11 02:54:42;;;;;;;8.649999;6.7;;;;;;;5.53;78.67285;96151.48;;;;
2020/11/11 02:55:42;;;;;;;8.649999;6.7;;;;;;;5.53;78.67285;96151.48;;;;
2020/11/11 02:56:43;;;;;;;8.649999;6.7;;;;;;;5.53;78.67285;96151.48;;;;
2020/11/11 02:57:45;;;;;;;8.649999;6.7;;;;;;;5.53;78.67285;96151.48;;;;
2020/11/11 02:58:46;;;;;;;8.649999;6.7;;;;;;;5.53;78.67285;96151.48;;;;
2020/11/11 02:59:46;;;;;;;8.649999;6.7;;;;;;;5.53;78.67285;96151.48;;;;
2020/11/11 03:00:47;;;;;;;8.649999;6.7;;;;;;;5.53;78.67285;96151.48;;;;
2020/11/11 03:01:47;;;;;;;8.649999;6.7;;;;;;;5.53;78.67285;96151.48;;;;
2020/11/11 03:02:48;;;;;;;8.649999;6.7;;;;;;;5.53;78.67285;96151.48;;;;
2020/11/11 03:03:49;;;;;;;8.649999;6.7;;;;;;;5.53;78.67285;96151.48;;;;
2020/11/11 03:04:51;;;;;;;8.449999;7.05;;;;;;;5.6;79;96144.45;;;;
2020/11/11 03:05:51;;;;;;;8.449999;7.05;;;;;;;5.6;79;96144.45;;;;
2020/11/11 03:06:52;;;;;;;8.449999;7.05;;;;;;;5.6;79;96144.45;;;;
2020/11/11 03:07:52;;;;;;;8.449999;7.05;;;;;;;5.6;79;96144.45;;;;
2020/11/11 03:08:53;;;;;;;8.449999;7.05;;;;;;;5.6;79;96144.45;;;;
2020/11/11 03:09:53;;;;;;;8.449999;7.05;;;;;;;5.6;79;96144.45;;;;
2020/11/11 03:10:54;;;;;;;8.449999;7.05;;;;;;;5.6;79;96144.45;;;;
2020/11/11 03:11:55;;;;;;;8.449999;7.05;;;;;;;5.6;79;96144.45;;;;
2020/11/11 03:12:55;;;;;;;8.449999;7.05;;;;;;;5.6;79;96144.45;;;;
2020/11/11 03:13:55;;;;;;;8.449999;7.05;;;;;;;5.6;79;96144.45;;;;
2020/11/11 03:14:58;;;;;;;9.050001;7.05;;;;;;;5.61;79.3623;96142.53;;;;
2020/11/11 03:15:59;;;;;;;9.050001;7.05;;;;;;;5.61;79.3623;96142.53;;;;
2020/11/11 03:16:59;;;;;;;9.050001;7.05;;;;;;;5.61;79.3623;96142.53;;;;
2020/11/11 03:18:00;;;;;;;9.050001;7.05;;;;;;;5.61;79.3623;96142.53;;;;
2020/11/11 03:19:00;;;;;;;9.050001;7.05;;;;;;;5.61;79.3623;96142.53;;;;
2020/11/11 03:20:01;;;;;;;9.050001;7.05;;;;;;;5.61;79.3623;96142.53;;;;
2020/11/11 03:21:02;;;;;;;9.050001;7.05;;;;;;;5.61;79.3623;96142.53;;;;
2020/11/11 03:22:03;;;;;;;9.050001;7.05;;;;;;;5.61;79.3623;96142.53;;;;
2020/11/11 03:23:04;;;;;;;9.050001;7.05;;;;;;;5.61;79.3623;96142.53;;;;
2020/11/11 03:24:04;;;;;;;9.050001;7.05;;;;;;;5.61;79.3623;96142.53;;;;
2020/11/11 03:25:05;;;;;;;9.050001;7.05;;;;;;;5.61;79.3623;96142.53;;;;
2020/11/11 03:26:05;;;;;;;8.4;7;;;;;;;5.69;79.4502;96153.56;;;;
2020/11/11 03:27:06;;;;;;;8.4;7;;;;;;;5.69;79.4502;96153.56;;;;
2020/11/11 03:28:07;;;;;;;8.4;7;;;;;;;5.69;79.4502;96153.56;;;;
2020/11/11 03:29:08;;;;;;;8.4;7;;;;;;;5.69;79.4502;96153.56;;;;
2020/11/11 03:30:08;;;;;;;8.4;7;;;;;;;5.69;79.4502;96153.56;;;;
2020/11/11 03:31:09;;;;;;;8.4;7;;;;;;;5.69;79.4502;96153.56;;;;
2020/11/11 03:32:09;;;;;;;8.4;7;;;;;;;5.69;79.4502;96153.56;;;;
2020/11/11 03:33:10;;;;;;;8.4;7;;;;;;;5.69;79.4502;96153.56;;;;
2020/11/11 03:34:10;;;;;;;8.4;7;;;;;;;5.69;79.4502;96153.56;;;;
2020/11/11 03:35:11;;;;;;;8.4;7;;;;;;;5.69;79.4502;96153.56;;;;
2020/11/11 03:36:12;;;;;;;9.35;6.799999;;;;;;;5.7;79.43262;96151.19;;;;
2020/11/11 03:37:12;;;;;;;9.35;6.799999;;;;;;;5.7;79.43262;96151.19;;;;
2020/11/11 03:38:14;;;;;;;9.35;6.799999;;;;;;;5.7;79.43262;96151.19;;;;
2020/11/11 03:39:15;;;;;;;9.35;6.799999;;;;;;;5.7;79.43262;96151.19;;;;
2020/11/11 03:40:15;;;;;;;9.35;6.799999;;;;;;;5.7;79.43262;96151.19;;;;
2020/11/11 03:41:16;;;;;;;9.35;6.799999;;;;;;;5.7;79.43262;96151.19;;;;
2020/11/11 03:42:17;;;;;;;9.35;6.799999;;;;;;;5.7;79.43262;96151.19;;;;
2020/11/11 03:43:17;;;;;;;9.35;6.799999;;;;;;;5.7;79.43262;96151.19;;;;
2020/11/11 03:44:18;;;;;;;9.35;6.799999;;;;;;;5.7;79.43262;96151.19;;;;
2020/11/11 03:45:18;;;;;;;9.35;6.799999;;;;;;;5.7;79.43262;96151.19;;;;
2020/11/11 03:46:19;;;;;;;9.35;6.799999;;;;;;;5.7;79.43262;96151.19;;;;
2020/11/11 03:47:19;;;;;;;11.75;7.3;;;;;;;5.76;79.88672;96142.42;;;;
2020/11/11 03:48:20;;;;;;;11.75;7.3;;;;;;;5.76;79.88672;96142.42;;;;
2020/11/11 03:49:20;;;;;;;11.75;7.3;;;;;;;5.76;79.88672;96142.42;;;;
2020/11/11 03:50:21;;;;;;;11.75;7.3;;;;;;;5.76;79.88672;96142.42;;;;
2020/11/11 03:51:21;;;;;;;11.75;7.3;;;;;;;5.76;79.88672;96142.42;;;;
2020/11/11 03:52:22;;;;;;;11.75;7.3;;;;;;;5.76;79.88672;96142.42;;;;
2020/11/11 03:53:22;;;;;;;11.75;7.3;;;;;;;5.76;79.88672;96142.42;;;;
2020/11/11 03:54:23;;;;;;;11.75;7.3;;;;;;;5.76;79.88672;96142.42;;;;
2020/11/11 03:55:23;;;;;;;11.75;7.3;;;;;;;5.76;79.88672;96142.42;;;;
2020/11/11 03:56:24;;;;;;;11.75;7.3;;;;;;;5.76;79.88672;96142.42;;;;
2020/11/11 03:57:24;;;;;;;11.75;7.3;;;;;;;5.76;79.88672;96142.42;;;;
2020/11/11 03:58:25;;;;;;;8.8;7.55;;;;;;;5.75;80.34961;96119.84;;;;
2020/11/11 03:59:25;;;;;;;8.8;7.55;;;;;;;5.75;80.34961;96119.84;;;;
2020/11/11 04:00:26;;;;;;;8.8;7.55;;;;;;;5.75;80.34961;96119.84;;;;
2020/11/11 04:01:26;;;;;;;8.8;7.55;;;;;;;5.75;80.34961;96119.84;;;;
2020/11/11 04:02:27;;;;;;;8.8;7.55;;;;;;;5.75;80.34961;96119.84;;;;
2020/11/11 04:03:27;;;;;;;8.8;7.55;;;;;;;5.75;80.34961;96119.84;;;;
2020/11/11 04:04:37;;;;;;;8.8;7.55;;;;;;;5.75;80.34961;96119.84;;;;
2020/11/11 04:05:37;;;;;;;8.8;7.55;;;;;;;5.75;80.34961;96119.84;;;;
2020/11/11 04:06:38;;;;;;;8.8;7.55;;;;;;;5.75;80.34961;96119.84;;;;
2020/11/11 04:07:38;;;;;;;8.8;7.55;;;;;;;5.75;80.34961;96119.84;;;;
2020/11/11 04:08:39;;;;;;;10.7;7.750001;;;;;;;5.78;80.60645;96130.17;;;;
2020/11/11 04:09:39;;;;;;;10.7;7.750001;;;;;;;5.78;80.60645;96130.17;;;;
2020/11/11 04:10:40;;;;;;;10.7;7.750001;;;;;;;5.78;80.60645;96130.17;;;;
2020/11/11 04:11:40;;;;;;;10.7;7.750001;;;;;;;5.78;80.60645;96130.17;;;;
2020/11/11 04:12:41;;;;;;;10.7;7.750001;;;;;;;5.78;80.60645;96130.17;;;;
2020/11/11 04:13:41;;;;;;;10.7;7.750001;;;;;;;5.78;80.60645;96130.17;;;;
2020/11/11 04:14:42;;;;;;;10.7;7.750001;;;;;;;5.78;80.60645;96130.17;;;;
2020/11/11 04:15:43;;;;;;;10.7;7.750001;;;;;;;5.78;80.60645;96130.17;;;;
2020/11/11 04:16:43;;;;;;;10.7;7.750001;;;;;;;5.78;80.60645;96130.17;;;;
2020/11/11 04:17:44;;;;;;;10.7;7.750001;;;;;;;5.78;80.60645;96130.17;;;;
2020/11/11 04:18:44;;;;;;;10.7;7.750001;;;;;;;5.78;80.60645;96130.17;;;;
2020/11/11 04:19:45;;;;;;;9.400002;7.4;;;;;;;5.69;80.59082;96130.38;;;;
2020/11/11 04:20:47;;;;;;;9.400002;7.4;;;;;;;5.69;80.59082;96130.38;;;;
2020/11/11 04:21:47;;;;;;;9.400002;7.4;;;;;;;5.69;80.59082;96130.38;;;;
2020/11/11 04:22:48;;;;;;;9.400002;7.4;;;;;;;5.69;80.59082;96130.38;;;;
2020/11/11 04:23:49;;;;;;;9.400002;7.4;;;;;;;5.69;80.59082;96130.38;;;;
2020/11/11 04:24:50;;;;;;;9.400002;7.4;;;;;;;5.69;80.59082;96130.38;;;;
2020/11/11 04:25:58;;;;;;;9.400002;7.4;;;;;;;5.69;80.59082;96130.38;;;;
2020/11/11 04:26:59;;;;;;;9.400002;7.4;;;;;;;5.69;80.59082;96130.38;;;;
2020/11/11 04:27:59;;;;;;;9.400002;7.4;;;;;;;5.69;80.59082;96130.38;;;;
2020/11/11 04:29:00;;;;;;;9.400002;7.4;;;;;;;5.69;80.59082;96130.38;;;;
2020/11/11 04:30:00;;;;;;;9.000001;7.299999;;;;;;;5.69;81.05566;96126.76;;;;
2020/11/11 04:31:02;;;;;;;9.000001;7.299999;;;;;;;5.69;81.05566;96126.76;;;;
2020/11/11 04:32:03;;;;;;;9.000001;7.299999;;;;;;;5.69;81.05566;96126.76;;;;
2020/11/11 04:33:03;;;;;;;9.000001;7.299999;;;;;;;5.69;81.05566;96126.76;;;;
2020/11/11 04:34:04;;;;;;;9.000001;7.299999;;;;;;;5.69;81.05566;96126.76;;;;
2020/11/11 04:35:05;;;;;;;9.000001;7.299999;;;;;;;5.69;81.05566;96126.76;;;;
2020/11/11 04:36:05;;;;;;;9.000001;7.299999;;;;;;;5.69;81.05566;96126.76;;;;
2020/11/11 04:37:06;;;;;;;9.000001;7.299999;;;;;;;5.69;81.05566;96126.76;;;;
2020/11/11 04:38:06;;;;;;;9.000001;7.299999;;;;;;;5.69;81.05566;96126.76;;;;
2020/11/11 04:39:08;;;;;;;9.000001;7.299999;;;;;;;5.69;81.05566;96126.76;;;;
2020/11/11 04:40:09;;;;;;;9.000001;7.299999;;;;;;;5.69;81.05566;96126.76;;;;
2020/11/11 04:41:11;;;;;;;9.4;7.650001;;;;;;;5.61;80.94629;96126.88;;;;
2020/11/11 04:42:24;;;;;;;9.4;7.650001;;;;;;;5.61;80.94629;96126.88;;;;
2020/11/11 04:43:27;;;;;;;9.4;7.650001;;;;;;;5.61;80.94629;96126.88;;;;
2020/11/11 04:44:30;;;;;;;9.4;7.650001;;;;;;;5.61;80.94629;96126.88;;;;
2020/11/11 04:45:35;;;;;;;9.4;7.650001;;;;;;;5.61;80.94629;96126.88;;;;
2020/11/11 04:46:35;;;;;;;9.4;7.650001;;;;;;;5.61;80.94629;96126.88;;;;
2020/11/11 04:47:59;;;;;;;9.4;7.650001;;;;;;;5.61;80.94629;96126.88;;;;
2020/11/11 04:49:10;;;;;;;9.4;7.650001;;;;;;;5.61;80.94629;96126.88;;;;
2020/11/11 04:50:33;;;;;;;9.4;7.650001;;;;;;;5.61;80.94629;96126.88;;;;
2020/11/11 04:52:10;;;;;;;10.45;7.9;;;;;;;5.5;81.13672;96135.38;;;;
2020/11/11 04:53:22;;;;;;;10.45;7.9;;;;;;;5.5;81.13672;96135.38;;;;
2020/11/11 04:54:29;;;;;;;10.45;7.9;;;;;;;5.5;81.13672;96135.38;;;;
2020/11/11 04:55:35;;;;;;;10.45;7.9;;;;;;;5.5;81.13672;96135.38;;;;
2020/11/11 04:56:39;;;;;;;10.45;7.9;;;;;;;5.5;81.13672;96135.38;;;;
2020/11/11 04:57:49;;;;;;;10.45;7.9;;;;;;;5.5;81.13672;96135.38;;;;
2020/11/11 04:58:57;;;;;;;10.45;7.9;;;;;;;5.5;81.13672;96135.38;;;;
2020/11/11 05:00:02;;;;;;;10.45;7.9;;;;;;;5.5;81.13672;96135.38;;;;
2020/11/11 05:01:08;;;;;;;10.45;7.9;;;;;;;5.5;81.13672;96135.38;;;;
2020/11/11 05:02:34;;;;;;;10.65;8.150002;;;;;;;5.44;81.43164;96135.17;;;;
2020/11/11 05:03:41;;;;;;;10.65;8.150002;;;;;;;5.44;81.43164;96135.17;;;;
2020/11/11 05:04:49;;;;;;;10.65;8.150002;;;;;;;5.44;81.43164;96135.17;;;;
2020/11/11 05:06:03;;;;;;;10.65;8.150002;;;;;;;5.44;81.43164;96135.17;;;;
2020/11/11 05:07:12;;;;;;;10.65;8.150002;;;;;;;5.44;81.43164;96135.17;;;;
2020/11/11 05:08:15;;;;;;;10.65;8.150002;;;;;;;5.44;81.43164;96135.17;;;;
2020/11/11 05:09:18;;;;;;;10.65;8.150002;;;;;;;5.44;81.43164;96135.17;;;;
2020/11/11 05:10:23;;;;;;;10.65;8.150002;;;;;;;5.44;81.43164;96135.17;;;;
2020/11/11 05:11:28;;;;;;;10.65;8.150002;;;;;;;5.44;81.43164;96135.17;;;;
2020/11/11 05:12:29;;;;;;;13.35;8.500002;;;;;;;5.54;81.71387;96122.44;;;;
2020/11/11 05:13:29;;;;;;;13.35;8.500002;;;;;;;5.54;81.71387;96122.44;;;;
2020/11/11 05:14:30;;;;;;;13.35;8.500002;;;;;;;5.54;81.71387;96122.44;;;;
2020/11/11 05:15:42;;;;;;;13.35;8.500002;;;;;;;5.54;81.71387;96122.44;;;;
2020/11/11 05:16:45;;;;;;;13.35;8.500002;;;;;;;5.54;81.71387;96122.44;;;;
2020/11/11 05:17:48;;;;;;;13.35;8.500002;;;;;;;5.54;81.71387;96122.44;;;;
2020/11/11 05:18:48;;;;;;;13.35;8.500002;;;;;;;5.54;81.71387;96122.44;;;;
2020/11/11 05:20:05;;;;;;;13.35;8.500002;;;;;;;5.54;81.71387;96122.44;;;;
2020/11/11 05:21:24;;;;;;;13.35;8.500002;;;;;;;5.54;81.71387;96122.44;;;;
2020/11/11 05:22:25;;;;;;;13.35;8.500002;;;;;;;5.54;81.71387;96122.44;;;;
2020/11/11 05:23:25;;;;;;;14.35;10.1;;;;;;;5.6;81.68359;96134.58;;;;
2020/11/11 05:24:26;;;;;;;14.35;10.1;;;;;;;5.6;81.68359;96134.58;;;;
2020/11/11 05:25:28;;;;;;;14.35;10.1;;;;;;;5.6;81.68359;96134.58;;;;
2020/11/11 05:26:29;;;;;;;14.35;10.1;;;;;;;5.6;81.68359;96134.58;;;;
2020/11/11 05:27:31;;;;;;;14.35;10.1;;;;;;;5.6;81.68359;96134.58;;;;
2020/11/11 05:28:32;;;;;;;14.35;10.1;;;;;;;5.6;81.68359;96134.58;;;;
2020/11/11 05:29:33;;;;;;;14.35;10.1;;;;;;;5.6;81.68359;96134.58;;;;
2020/11/11 05:30:36;;;;;;;14.35;10.1;;;;;;;5.6;81.68359;96134.58;;;;
2020/11/11 05:31:37;;;;;;;14.35;10.1;;;;;;;5.6;81.68359;96134.58;;;;
2020/11/11 05:32:37;;;;;;;14.35;10.1;;;;;;;5.6;81.68359;96134.58;;;;
2020/11/11 05:33:49;;;;;;;15.05;9.749999;;;;;;;5.72;81.85254;96134.04;;;;
2020/11/11 05:34:50;;;;;;;15.05;9.749999;;;;;;;5.72;81.85254;96134.04;;;;
2020/11/11 05:35:56;;;;;;;15.05;9.749999;;;;;;;5.72;81.85254;96134.04;;;;
2020/11/11 05:36:59;;;;;;;15.05;9.749999;;;;;;;5.72;81.85254;96134.04;;;;
2020/11/11 05:38:00;;;;;;;15.05;9.749999;;;;;;;5.72;81.85254;96134.04;;;;
2020/11/11 05:39:06;;;;;;;15.05;9.749999;;;;;;;5.72;81.85254;96134.04;;;;
2020/11/11 05:40:12;;;;;;;15.05;9.749999;;;;;;;5.72;81.85254;96134.04;;;;
2020/11/11 05:41:20;;;;;;;15.05;9.749999;;;;;;;5.72;81.85254;96134.04;;;;
2020/11/11 05:42:26;;;;;;;15.05;9.749999;;;;;;;5.72;81.85254;96134.04;;;;
2020/11/11 05:43:27;;;;;;;15.05;9.749999;;;;;;;5.72;81.85254;96134.04;;;;